This is the latest recevied weather packets stored in our database for station/object HS2GJW-1. If no packets are shown the sender has not sent any weather packets the latest 1 day(s).
| Time | Temp. | Humidity | Pressure | Rain* | Wind** | Luminosity | Snow |
|---|---|---|---|---|---|---|---|
| 1778058476 | 35.56° C | 71% | 1005 hPa | - | 0 m/s | 0 W/m² | - |
| 1778057852 | 36.67° C | 65% | 1005 hPa | - | 0 m/s | 0 W/m² | - |
| 1778057227 | 37.22° C | 64% | 1005 hPa | - | 0 m/s | 0 W/m² | - |
| 1778056602 | 37.22° C | 66% | 1005 hPa | - | 0 m/s | 0 W/m² | - |
| 1778055978 | 37.22° C | 69% | 1006 hPa | - | 0 m/s | 0 W/m² | - |
| 1778055353 | 37.22° C | 66% | 1006 hPa | - | 0 m/s | 0 W/m² | - |
| 1778054728 | 36.67° C | 65% | 1006 hPa | - | 0 m/s | 0 W/m² | - |
| 1778054103 | 37.78° C | 61% | 1006 hPa | - | 0 m/s | 0 W/m² | - |
| 1778053478 | 37.22° C | 61% | 1006 hPa | - | 0 m/s | 0 W/m² | - |
| 1778052854 | 37.22° C | 57% | 1006 hPa | - | 0 m/s | 0 W/m² | - |
| 1778052231 | 37.78° C | 58% | 1006 hPa | - | 0 m/s | 0 W/m² | - |
| 1778051607 | 37.22° C | 60% | 1006 hPa | - | 0 m/s | 0 W/m² | - |
| 1778050983 | 37.78° C | 60% | 1007 hPa | - | 0 m/s | 0 W/m² | - |
| 1778050358 | 37.22° C | 62% | 1007 hPa | - | 0 m/s | 0 W/m² | - |
| 1778049735 | 36.67° C | 59% | 1007 hPa | - | 0 m/s | 0 W/m² | - |
| 1778049111 | 36.67° C | 59% | 1008 hPa | - | 0 m/s | 0 W/m² | - |
| 1778048487 | 37.22° C | 64% | 1008 hPa | - | 0 m/s | 0 W/m² | - |
| 1778047863 | 36.67° C | 67% | 1008 hPa | - | 0 m/s | 0 W/m² | - |
| 1778047239 | 36.67° C | 67% | 1008 hPa | - | 0 m/s | 0 W/m² | - |
| 1778046614 | 36.11° C | 67% | 1008 hPa | - | 0 m/s | 0 W/m² | - |
| 1778045990 | 36.11° C | 69% | 1009 hPa | - | 0 m/s | 0 W/m² | - |
| 1778045365 | 35° C | 70% | 1009 hPa | - | 0 m/s | 0 W/m² | - |
| 1778029149 | 30.56° C | 99% | 1010 hPa | - | 0 m/s | 0 W/m² | - |
| 1778028524 | 30° C | 99% | 1010 hPa | - | 0 m/s | 0 W/m² | - |
| 1778027898 | 30° C | 99% | 1010 hPa | - | 0 m/s | 0 W/m² | - |
* Rain since midnight (hover to see other rain measurements)
** Current wind speed in m/s (hover to see current wind gust speed)